Time;durP1;ratioP1;P1;durP2;ratioP2;P2;SDS_P1;SDS_P2;PMS_P1;PMS_P2;Temp;Humidity;BMP_temperature;BMP_pressure;BME280_temperature;BME280_humidity;BME280_pressure;Samples;Min_cycle;Max_cycle;Signal;HPM_P1;HPM_P2
2022/05/03 00:00:48;;;;;;;10.80;9.55;;;;;;;10.46;68.06;102130.56;5078566;28;20138;-79
2022/05/03 00:04:10;;;;;;;12.68;9.75;;;;;;;10.42;68.02;102121.91;5060598;28;20024;-79
2022/05/03 00:07:02;;;;;;;13.80;9.65;;;;;;;10.39;68.09;102119.38;5046784;28;20036;-79
2022/05/03 00:09:56;;;;;;;12.15;9.63;;;;;;;10.36;68.39;102119.44;5078131;28;20032;-79
2022/05/03 00:12:32;;;;;;;11.50;10.35;;;;;;;10.32;68.15;102116.00;5078039;28;20040;-79
2022/05/03 00:15:00;;;;;;;12.02;9.60;;;;;;;10.30;68.22;102123.00;5077832;28;20108;-79
2022/05/03 00:17:26;;;;;;;10.80;9.50;;;;;;;10.27;68.29;102119.56;5078196;28;20091;-79
2022/05/03 00:19:53;;;;;;;12.52;9.60;;;;;;;10.26;68.08;102117.84;5027443;28;20301;-80
2022/05/03 00:22:22;;;;;;;12.88;9.88;;;;;;;10.24;68.25;102110.03;5043334;28;20039;-80
2022/05/03 00:24:48;;;;;;;11.88;10.57;;;;;;;10.21;68.29;102106.59;5077987;28;20028;-79
2022/05/03 00:27:14;;;;;;;13.90;10.55;;;;;;;10.19;68.35;102104.88;5060082;28;20347;-79
2022/05/03 00:29:40;;;;;;;13.23;10.57;;;;;;;10.16;68.29;102110.16;5043763;28;20082;-79
2022/05/03 00:32:06;;;;;;;12.23;10.77;;;;;;;10.13;68.35;102111.97;5078090;28;20087;-79
2022/05/03 00:34:33;;;;;;;14.05;10.25;;;;;;;10.11;68.28;102113.75;5077657;28;20356;-79
2022/05/03 00:36:59;;;;;;;14.95;9.90;;;;;;;10.08;68.49;102109.44;5078038;28;20037;-79
2022/05/03 00:39:25;;;;;;;12.35;10.57;;;;;;;10.08;68.52;102113.81;5060018;28;20044;-79
2022/05/03 00:42:17;;;;;;;12.65;10.43;;;;;;;10.04;68.56;102115.63;5078005;28;20024;-79
2022/05/03 00:45:04;;;;;;;11.15;9.95;;;;;;;10.03;68.63;102116.50;5078034;28;20247;-80
2022/05/03 00:47:45;;;;;;;14.45;10.48;;;;;;;10.01;68.77;102120.91;5077433;28;20040;-79
2022/05/03 00:50:14;;;;;;;15.00;10.48;;;;;;;9.97;68.73;102117.50;5060028;28;20034;-79
2022/05/03 00:53:19;;;;;;;12.93;11.02;;;;;;;9.96;68.91;102117.50;5077623;28;20056;-79
2022/05/03 00:55:47;;;;;;;11.55;10.35;;;;;;;9.93;69.02;102115.81;5078495;28;20336;-79
2022/05/03 00:58:31;;;;;;;15.55;11.40;;;;;;;9.92;69.02;102118.47;5059498;28;20032;-79
2022/05/03 01:04:46;;;;;;;15.25;10.68;;;;;;;9.87;68.92;102117.69;5060179;28;20060;-79
2022/05/03 01:07:31;;;;;;;15.35;11.27;;;;;;;9.84;69.19;102118.59;5039662;28;20033;-79
2022/05/03 01:10:08;;;;;;;14.30;11.13;;;;;;;9.83;69.11;102118.63;5057506;28;20039;-80
2022/05/03 01:13:01;;;;;;;13.65;10.85;;;;;;;9.80;69.33;102115.19;5058442;28;20264;-79
2022/05/03 01:15:31;;;;;;;13.23;11.30;;;;;;;9.78;69.42;102114.31;5057854;28;20071;-79
2022/05/03 01:18:00;;;;;;;14.23;11.15;;;;;;;9.76;69.37;102113.47;5057778;28;20036;-79
2022/05/03 01:20:50;;;;;;;14.30;11.23;;;;;;;9.74;69.34;102107.41;5039215;28;20033;-80
2022/05/03 01:23:41;;;;;;;14.43;11.18;;;;;;;9.73;69.24;102110.06;5039486;28;20036;-79
2022/05/03 01:26:22;;;;;;;13.50;11.05;;;;;;;9.70;69.34;102108.38;5057611;28;20132;-79
2022/05/03 01:29:02;;;;;;;15.27;11.23;;;;;;;9.70;69.30;102110.13;5057603;28;20056;-79
2022/05/03 01:31:28;;;;;;;13.63;11.65;;;;;;;9.68;69.37;102104.03;5039268;28;20056;-79
2022/05/03 01:34:00;;;;;;;14.85;11.52;;;;;;;9.65;69.57;102102.34;5039786;28;20290;-79
2022/05/03 01:37:15;;;;;;;15.63;11.98;;;;;;;9.62;69.46;102102.38;5057588;28;20138;-79
2022/05/03 01:39:59;;;;;;;14.10;11.05;;;;;;;9.60;69.41;102102.44;5011817;28;20045;-79
2022/05/03 01:42:54;;;;;;;14.77;11.73;;;;;;;9.60;69.63;102105.06;5039794;28;20033;-79
2022/05/03 01:45:29;;;;;;;14.23;11.07;;;;;;;9.58;69.67;102100.72;5029674;28;20280;-79
2022/05/03 01:48:01;;;;;;;15.30;12.05;;;;;;;9.56;69.50;102099.88;5057994;28;20028;-79
2022/05/03 01:50:41;;;;;;;16.63;11.70;;;;;;;9.55;69.61;102093.78;5057325;28;20036;-79
2022/05/03 01:53:14;;;;;;;14.65;10.98;;;;;;;9.53;69.52;102097.31;5040531;28;20380;-79
2022/05/03 01:56:18;;;;;;;14.88;10.88;;;;;;;9.50;69.74;102095.63;5047199;28;20052;-79
2022/05/03 01:59:04;;;;;;;13.80;10.73;;;;;;;9.48;69.45;102094.78;5049700;28;20110;-79
2022/05/03 02:01:48;;;;;;;10.93;9.80;;;;;;;9.47;69.63;102098.28;5039731;28;20036;-79
2022/05/03 02:04:47;;;;;;;16.02;11.93;;;;;;;9.44;69.71;102102.69;5039529;28;20056;-79
2022/05/03 02:07:22;;;;;;;13.80;10.35;;;;;;;9.41;69.73;102099.22;5040531;28;20092;-79
2022/05/03 02:10:10;;;;;;;12.40;10.52;;;;;;;9.40;69.96;102092.28;5057655;28;20098;-79
2022/05/03 02:12:37;;;;;;;14.15;10.93;;;;;;;9.38;69.90;102096.66;5057016;28;20025;-79
2022/05/03 02:15:11;;;;;;;14.98;10.93;;;;;;;9.36;69.98;102092.34;5039681;28;20359;-79
2022/05/03 02:17:52;;;;;;;14.48;11.25;;;;;;;9.35;69.81;102088.00;5056680;28;20057;-79
2022/05/03 02:20:48;;;;;;;12.13;10.25;;;;;;;9.34;69.99;102094.13;5056413;28;20028;-79
2022/05/03 02:23:15;;;;;;;14.68;11.00;;;;;;;9.33;69.99;102092.38;5038699;28;20206;-79
2022/05/03 02:25:59;;;;;;;12.77;10.70;;;;;;;9.31;69.99;102089.78;5056647;28;20094;-79
2022/05/03 02:28:44;;;;;;;13.27;11.05;;;;;;;9.30;70.01;102095.06;5056586;28;20036;-79
2022/05/03 02:31:46;;;;;;;16.05;11.38;;;;;;;9.28;70.22;102102.03;5038871;28;20025;-79
2022/05/03 02:34:48;;;;;;;13.48;11.05;;;;;;;9.26;70.17;102094.25;5016403;28;20025;-79
2022/05/03 02:37:21;;;;;;;13.32;10.90;;;;;;;9.23;70.18;102092.53;5046533;28;20052;-79
2022/05/03 02:40:04;;;;;;;12.32;10.45;;;;;;;9.21;70.02;102096.91;5059988;28;20033;-79
2022/05/03 02:42:31;;;;;;;11.57;9.90;;;;;;;9.20;69.95;102097.81;5059414;28;20029;-79
2022/05/03 02:45:00;;;;;;;12.80;10.18;;;;;;;9.18;70.13;102099.56;5059860;28;20039;-79
2022/05/03 02:47:51;;;;;;;12.70;10.73;;;;;;;9.17;70.11;102105.69;5041616;28;20121;-79
2022/05/03 02:50:35;;;;;;;12.90;10.85;;;;;;;9.14;70.13;102094.44;5041760;28;20031;-79
2022/05/03 02:53:27;;;;;;;16.35;11.20;;;;;;;9.13;70.35;102090.97;5060092;28;20254;-79
2022/05/03 02:55:58;;;;;;;14.18;10.35;;;;;;;9.11;70.19;102095.31;5059721;28;20037;-79
2022/05/03 02:58:41;;;;;;;15.10;11.18;;;;;;;9.09;70.34;102089.25;5042059;28;20025;-79
2022/05/03 03:01:47;;;;;;;13.90;10.23;;;;;;;9.08;70.53;102086.66;5041904;28;20037;-79
2022/05/03 03:04:32;;;;;;;13.18;10.43;;;;;;;9.06;70.34;102089.31;5056877;28;20041;-79
2022/05/03 03:06:59;;;;;;;13.50;10.30;;;;;;;9.04;70.75;102091.09;5041799;28;20020;-79
2022/05/03 03:09:43;;;;;;;15.23;11.00;;;;;;;9.02;70.42;102085.88;5059396;28;20102;-79
2022/05/03 03:12:25;;;;;;;13.25;10.00;;;;;;;9.03;70.55;102084.13;5059663;28;20378;-79
2022/05/03 03:15:02;;;;;;;11.50;10.30;;;;;;;9.00;70.73;102092.00;5059866;28;20032;-79
2022/05/03 03:17:29;;;;;;;11.52;9.68;;;;;;;8.98;70.67;102085.94;5058879;28;20044;-79
2022/05/03 03:20:04;;;;;;;12.57;10.13;;;;;;;8.98;70.63;102093.78;5041474;28;20326;-79
2022/05/03 03:22:49;;;;;;;13.25;10.18;;;;;;;8.96;70.55;102090.31;5040892;28;20029;-79
2022/05/03 03:25:19;;;;;;;15.90;10.40;;;;;;;8.94;70.48;102077.28;5040588;28;20283;-79
2022/05/03 03:27:47;;;;;;;15.18;11.30;;;;;;;8.93;70.58;102087.75;5041256;28;20024;-79
2022/05/03 03:30:14;;;;;;;15.40;11.75;;;;;;;8.92;70.57;102091.25;5041038;28;20044;-79
2022/05/03 03:32:46;;;;;;;14.15;11.20;;;;;;;8.90;70.74;102085.19;5041364;28;20032;-79
2022/05/03 03:35:14;;;;;;;14.45;10.82;;;;;;;8.88;70.78;102080.00;5041151;28;20025;-79
2022/05/03 03:37:44;;;;;;;14.75;11.55;;;;;;;8.88;70.68;102079.09;5024941;28;20259;-79
2022/05/03 03:40:30;;;;;;;15.32;11.75;;;;;;;8.87;70.87;102080.00;5041157;28;20033;-79
2022/05/03 03:42:56;;;;;;;14.60;11.40;;;;;;;8.84;70.95;102079.16;5059003;28;20044;-79
2022/05/03 03:45:21;;;;;;;15.48;11.85;;;;;;;8.83;70.85;102076.56;5058606;28;20041;-79
2022/05/03 03:47:48;;;;;;;16.08;11.77;;;;;;;8.81;70.96;102079.19;5057502;28;20443;-79
2022/05/03 03:50:14;;;;;;;15.13;11.32;;;;;;;8.81;70.97;102081.81;5023139;28;20083;-79
2022/05/03 03:52:42;;;;;;;14.48;10.75;;;;;;;8.81;70.98;102080.94;5058390;28;20056;-79
2022/05/03 03:55:08;;;;;;;15.60;11.32;;;;;;;8.79;70.96;102086.19;5040786;28;20029;-79
2022/05/03 03:57:37;;;;;;;14.82;10.45;;;;;;;8.79;71.06;102074.88;5058333;28;20021;-79
2022/05/03 04:00:07;;;;;;;12.13;10.02;;;;;;;8.78;70.94;102081.84;5040784;28;20124;-79
2022/05/03 04:02:33;;;;;;;13.70;10.80;;;;;;;8.79;71.15;102082.72;5044891;28;20090;-79
2022/05/03 04:05:00;;;;;;;14.07;10.40;;;;;;;8.77;71.10;102077.53;5056993;28;20068;-79
2022/05/03 04:07:25;;;;;;;15.63;11.40;;;;;;;8.77;71.26;102085.34;5022115;28;20033;-79
2022/05/03 04:09:51;;;;;;;13.57;10.90;;;;;;;8.75;71.18;102087.13;5022164;28;20044;-79
2022/05/03 04:12:20;;;;;;;16.00;11.30;;;;;;;8.75;71.17;102081.91;5038190;28;20029;-79
2022/05/03 04:14:46;;;;;;;17.25;11.60;;;;;;;8.75;71.20;102081.91;5056475;28;20238;-79
2022/05/03 04:17:11;;;;;;;20.02;12.88;;;;;;;8.74;71.37;102079.31;5038703;28;20033;-78
2022/05/03 04:19:36;;;;;;;15.02;11.07;;;;;;;8.73;71.16;102081.06;5056087;28;20044;-79
2022/05/03 04:22:12;;;;;;;13.55;11.18;;;;;;;8.72;71.38;102076.72;5022288;28;20040;-79
2022/05/03 04:24:40;;;;;;;12.95;11.05;;;;;;;8.71;71.40;102074.97;5056312;28;20040;-79
2022/05/03 04:27:05;;;;;;;14.25;11.30;;;;;;;8.70;71.49;102083.72;5022041;28;20406;-79
2022/05/03 04:29:31;;;;;;;13.95;10.95;;;;;;;8.70;71.41;102080.25;5038131;28;20406;-79
2022/05/03 04:31:56;;;;;;;12.18;10.68;;;;;;;8.69;71.48;102074.13;5056303;28;20036;-79
2022/05/03 04:34:22;;;;;;;13.68;10.75;;;;;;;8.68;71.32;102079.38;5021845;28;20040;-79
2022/05/03 04:36:47;;;;;;;16.15;11.43;;;;;;;8.68;71.59;102084.59;5038316;28;20041;-79
2022/05/03 04:39:12;;;;;;;14.40;11.30;;;;;;;8.67;71.57;102088.09;5038031;28;20047;-79
2022/05/03 04:41:38;;;;;;;13.77;10.73;;;;;;;8.68;71.72;102079.38;5038456;28;20070;-79
2022/05/03 04:44:03;;;;;;;15.00;10.93;;;;;;;8.67;71.53;102081.13;5038494;28;20333;-79
2022/05/03 04:46:29;;;;;;;16.15;11.30;;;;;;;8.67;71.56;102086.34;5055562;28;20303;-79
2022/05/03 04:48:54;;;;;;;18.30;11.02;;;;;;;8.67;71.72;102085.50;5037989;28;20037;-79
2022/05/03 04:51:21;;;;;;;14.40;10.25;;;;;;;8.66;71.68;102084.63;5037670;28;20036;-79
2022/05/03 04:53:47;;;;;;;17.92;11.18;;;;;;;8.65;71.79;102083.75;5037701;28;20028;-79
2022/05/03 04:56:32;;;;;;;16.35;10.93;;;;;;;8.67;71.67;102086.34;5038085;28;20351;-79
2022/05/03 04:58:58;;;;;;;14.07;10.77;;;;;;;8.66;71.74;102084.63;5038479;28;20047;-79
2022/05/03 05:01:24;;;;;;;19.58;11.55;;;;;;;8.67;71.72;102093.31;5037176;28;20037;-79
2022/05/03 05:03:49;;;;;;;17.25;11.48;;;;;;;8.67;71.51;102093.31;5056455;28;20067;-79
2022/05/03 05:06:15;;;;;;;14.65;11.07;;;;;;;8.68;71.75;102088.09;5055697;28;20044;-79
2022/05/03 05:08:42;;;;;;;13.45;10.88;;;;;;;8.69;71.67;102091.56;5055783;28;20029;-79
2022/05/03 05:11:08;;;;;;;15.98;11.68;;;;;;;8.70;71.60;102093.28;5038190;28;20044;-79
2022/05/03 05:13:36;;;;;;;15.25;11.13;;;;;;;8.71;71.67;102097.63;5055430;28;20037;-79
2022/05/03 05:16:02;;;;;;;14.63;11.18;;;;;;;8.71;71.66;102092.41;5038391;28;20405;-79
2022/05/03 05:18:27;;;;;;;14.93;11.48;;;;;;;8.72;71.78;102096.75;5037165;28;20239;-79
2022/05/03 05:20:53;;;;;;;15.88;12.02;;;;;;;8.73;71.91;102099.34;5037638;28;20036;-79
2022/05/03 05:23:19;;;;;;;16.23;11.93;;;;;;;8.75;72.00;102101.91;5037435;28;20406;-79
2022/05/03 05:25:47;;;;;;;15.32;11.20;;;;;;;8.76;72.12;102098.44;5037189;28;20052;-79
2022/05/03 05:28:14;;;;;;;16.38;11.77;;;;;;;8.78;72.06;102104.50;5055344;28;20046;-79
2022/05/03 05:30:40;;;;;;;17.25;11.98;;;;;;;8.78;72.38;102105.34;5055363;28;20032;-79
2022/05/03 05:33:05;;;;;;;22.50;11.25;;;;;;;8.81;72.26;102107.06;5055720;28;20221;-79
2022/05/03 05:35:30;;;;;;;17.00;12.35;;;;;;;8.83;72.63;102107.91;5055029;28;20040;-79
2022/05/03 05:37:56;;;;;;;14.63;11.80;;;;;;;8.85;72.86;102106.16;5037695;28;20320;-79
2022/05/03 05:40:21;;;;;;;16.08;12.40;;;;;;;8.86;73.05;102104.38;5055197;28;20191;-79
2022/05/03 05:42:49;;;;;;;21.52;13.63;;;;;;;8.87;73.58;102101.75;5037429;28;20035;-79
2022/05/03 05:45:15;;;;;;;19.13;12.83;;;;;;;8.89;73.88;102099.97;5037500;28;20045;-79
2022/05/03 05:47:41;;;;;;;17.88;12.43;;;;;;;8.92;74.28;102106.94;5055506;28;20033;-79
2022/05/03 05:50:07;;;;;;;20.50;14.43;;;;;;;8.95;74.47;102104.25;5037286;28;20392;-79
2022/05/03 05:55:16;;;;;;;23.45;15.27;;;;;;;8.98;75.14;102110.31;5034487;28;20049;-79
2022/05/03 05:57:42;;;;;;;21.00;15.02;;;;;;;9.00;75.67;102111.19;5034277;28;20217;-79
2022/05/03 06:00:08;;;;;;;23.00;16.90;;;;;;;9.03;76.02;102115.50;5035425;28;20320;-79
2022/05/03 06:02:33;;;;;;;30.73;20.92;;;;;;;9.06;77.01;102109.34;5017480;28;20065;-79
2022/05/03 06:04:58;;;;;;;30.35;20.70;;;;;;;9.07;77.40;102108.47;5035291;28;20236;-79
2022/05/03 06:07:24;;;;;;;24.13;18.63;;;;;;;9.12;77.72;102111.88;5034103;28;20048;-79
2022/05/03 06:09:51;;;;;;;27.83;19.02;;;;;;;9.13;77.79;102111.88;5033879;28;20041;-79
2022/05/03 06:12:16;;;;;;;33.00;20.90;;;;;;;9.15;78.55;102114.44;5034397;28;20108;-79
2022/05/03 06:14:42;;;;;;;24.65;17.33;;;;;;;9.19;78.84;102116.13;5038592;28;20241;-79
2022/05/03 06:17:07;;;;;;;24.13;18.55;;;;;;;9.22;79.14;102113.47;5037836;28;20341;-79
2022/05/03 06:19:32;;;;;;;30.77;21.95;;;;;;;9.26;79.28;102117.78;5020920;28;20325;-79
2022/05/03 06:21:58;;;;;;;38.33;24.98;;;;;;;9.27;81.49;102116.88;5039122;28;20041;-79
2022/05/03 06:24:23;;;;;;;39.15;25.27;;;;;;;9.31;81.32;102112.47;5038753;28;20065;-79
2022/05/03 06:26:48;;;;;;;33.95;25.42;;;;;;;9.32;81.61;102122.91;5020819;28;20046;-79
2022/05/03 06:29:14;;;;;;;43.30;26.83;;;;;;;9.35;82.95;102119.38;5037190;28;20049;-79
2022/05/03 06:31:42;;;;;;;41.05;27.55;;;;;;;9.38;82.44;102119.34;5038845;28;20034;-79
2022/05/03 06:34:07;;;;;;;36.92;26.33;;;;;;;9.42;82.42;102121.00;5046463;28;20386;-79
2022/05/03 06:36:35;;;;;;;38.55;25.88;;;;;;;9.45;82.50;102125.34;5053255;28;20045;-79
2022/05/03 06:39:04;;;;;;;37.03;26.13;;;;;;;9.50;82.41;102126.13;5035173;28;20058;-79
2022/05/03 06:41:29;;;;;;;;;;;;;;;9.52;82.33;102125.22;5057051;28;20040;-79
2022/05/03 06:43:56;;;;;;;37.00;26.20;;;;;;;9.54;83.48;102123.44;5056975;28;19917;-79
2022/05/03 06:46:22;;;;;;;45.35;28.52;;;;;;;9.57;83.72;102130.38;5040450;28;20337;-79
2022/05/03 06:48:47;;;;;;;43.35;26.38;;;;;;;9.63;83.98;102126.81;5057743;28;20041;-79
2022/05/03 06:51:12;;;;;;;39.22;25.88;;;;;;;9.65;84.01;102125.88;5046609;28;20070;-79
2022/05/03 06:53:39;;;;;;;38.85;26.30;;;;;;;9.69;84.64;102132.78;5021201;28;20057;-79
2022/05/03 06:56:05;;;;;;;41.38;26.70;;;;;;;9.71;84.71;102131.00;5040236;28;20037;-79
2022/05/03 06:58:30;;;;;;;41.72;28.15;;;;;;;9.76;85.25;102134.41;5056375;28;20108;-79
2022/05/03 07:00:55;;;;;;;44.65;27.42;;;;;;;9.80;84.87;102133.50;5056568;28;20041;-79
2022/05/03 07:03:21;;;;;;;40.40;27.80;;;;;;;9.86;84.87;102137.75;5039411;28;20040;-79
2022/05/03 07:05:46;;;;;;;40.05;25.58;;;;;;;9.89;84.63;102132.44;5039854;28;20041;-79
2022/05/03 07:08:12;;;;;;;39.08;26.63;;;;;;;9.92;84.77;102134.16;5037163;28;20059;-79
2022/05/03 07:10:39;;;;;;;48.92;26.58;;;;;;;9.96;84.79;102133.22;5056169;28;20025;-79
2022/05/03 07:13:05;;;;;;;43.47;27.58;;;;;;;9.98;84.75;102129.66;5057673;28;20033;-79
2022/05/03 07:15:31;;;;;;;36.42;24.90;;;;;;;10.03;84.49;102131.38;5057473;28;20032;-79
2022/05/03 07:23:27;;;;;;;34.33;23.92;;;;;;;10.13;84.11;102131.19;5058307;28;20043;-79
2022/05/03 07:25:53;;;;;;;35.72;25.42;;;;;;;10.16;84.50;102132.88;5041185;28;20056;-79
2022/05/03 07:28:19;;;;;;;39.67;25.60;;;;;;;10.18;84.19;102145.00;5037744;28;20044;-79
2022/05/03 07:30:44;;;;;;;37.42;25.52;;;;;;;10.21;85.03;102145.88;5033480;28;20028;-79
2022/05/03 07:33:10;;;;;;;36.03;25.40;;;;;;;10.24;84.87;102143.19;5038909;28;20198;-79
2022/05/03 07:35:35;;;;;;;36.85;24.27;;;;;;;10.27;84.39;102144.00;5040318;28;20059;-79
2022/05/03 07:38:01;;;;;;;36.00;24.20;;;;;;;10.33;84.69;102145.66;5057874;28;20296;-79
2022/05/03 07:40:28;;;;;;;34.28;23.33;;;;;;;10.35;84.19;102141.25;5058108;28;20036;-79
2022/05/03 07:42:53;;;;;;;37.15;23.92;;;;;;;10.40;83.90;102146.41;5058701;28;20041;-79
2022/05/03 07:45:18;;;;;;;36.53;23.67;;;;;;;10.44;83.80;102140.22;5058586;28;20104;-79
2022/05/03 07:47:44;;;;;;;33.58;22.90;;;;;;;10.46;83.92;102141.94;5040606;28;20040;-79
2022/05/03 07:50:10;;;;;;;31.45;21.45;;;;;;;10.49;84.06;102144.47;5057584;28;20032;-79
2022/05/03 07:52:36;;;;;;;36.90;23.25;;;;;;;10.53;83.63;102137.41;5056994;28;20067;-79
2022/05/03 07:55:03;;;;;;;31.10;20.65;;;;;;;10.56;83.45;102146.09;5058518;28;20021;-79
2022/05/03 07:57:28;;;;;;;34.42;22.25;;;;;;;10.62;83.63;102141.63;5040233;28;20186;-79
2022/05/03 07:59:55;;;;;;;35.50;22.75;;;;;;;10.64;83.11;102139.81;5037445;28;20081;-79
2022/05/03 08:02:24;;;;;;;34.20;20.70;;;;;;;10.69;83.18;102138.84;5024822;28;20362;-79
2022/05/03 08:04:51;;;;;;;36.17;21.23;;;;;;;10.71;82.80;102138.81;5057074;28;20382;-79
2022/05/03 08:07:17;;;;;;;27.00;19.20;;;;;;;10.76;83.04;102137.81;5051950;28;20360;-79
2022/05/03 08:09:44;;;;;;;29.05;19.08;;;;;;;10.83;82.93;102133.31;5053385;28;20321;-79
2022/05/03 08:12:10;;;;;;;26.95;19.48;;;;;;;10.85;82.22;102141.16;5055222;28;20033;-79
2022/05/03 08:14:36;;;;;;;22.60;17.85;;;;;;;10.88;82.25;102141.09;5054616;28;20032;-79
2022/05/03 08:17:02;;;;;;;28.23;19.67;;;;;;;10.92;82.35;102150.63;5039333;28;20044;-79
2022/05/03 08:19:28;;;;;;;29.90;20.13;;;;;;;10.94;82.66;102147.06;5055376;28;20047;-79
2022/05/03 08:21:54;;;;;;;25.52;18.00;;;;;;;10.95;82.02;102159.28;5055672;28;20381;-79
2022/05/03 08:24:20;;;;;;;26.60;18.27;;;;;;;10.98;81.68;102154.88;5055457;28;20356;-79
2022/05/03 08:26:45;;;;;;;26.98;18.13;;;;;;;11.00;82.08;102153.91;5040139;28;20036;-79
2022/05/03 08:29:11;;;;;;;26.75;18.92;;;;;;;11.04;82.39;102159.97;5056445;28;20025;-79
2022/05/03 08:31:36;;;;;;;23.95;17.25;;;;;;;11.06;82.18;102158.16;5039384;28;20079;-79
2022/05/03 08:34:02;;;;;;;24.73;18.08;;;;;;;11.09;81.60;102160.72;5053068;28;20033;-79
2022/05/03 08:36:29;;;;;;;25.17;17.73;;;;;;;11.11;82.00;102161.56;5047301;28;20033;-79
2022/05/03 08:44:24;;;;;;;29.65;21.02;;;;;;;11.18;81.90;102155.28;5042346;28;20040;-79
2022/05/03 08:46:50;;;;;;;32.80;21.00;;;;;;;11.19;82.23;102159.66;5056095;28;20032;-79
2022/05/03 08:49:17;;;;;;;35.20;20.77;;;;;;;11.24;82.16;102157.78;5056113;28;20221;-79
2022/05/03 08:51:43;;;;;;;35.88;20.45;;;;;;;11.29;81.93;102152.41;5056663;28;20058;-79
2022/05/03 08:54:10;;;;;;;30.95;20.58;;;;;;;11.34;81.86;102161.91;5059655;28;20028;-79
2022/05/03 08:56:35;;;;;;;30.73;20.15;;;;;;;11.37;81.96;102158.38;5042624;28;20252;-79
2022/05/03 08:59:01;;;;;;;32.08;21.25;;;;;;;11.43;81.75;102162.59;5059333;28;20047;-79
2022/05/03 09:01:27;;;;;;;32.65;21.85;;;;;;;11.47;82.19;102165.09;5076774;28;20150;-79
2022/05/03 09:03:52;;;;;;;30.27;20.77;;;;;;;11.50;81.40;102161.56;5077172;28;20254;-79
2022/05/03 09:06:18;;;;;;;34.35;22.45;;;;;;;11.51;81.37;102171.16;5076806;28;20361;-79
2022/05/03 09:08:49;;;;;;;35.05;22.60;;;;;;;11.52;81.16;102175.50;5059266;28;20099;-79
2022/05/03 09:11:16;;;;;;;34.83;22.25;;;;;;;11.52;80.94;102170.25;5056195;28;20021;-79
2022/05/03 09:13:43;;;;;;;39.30;24.58;;;;;;;11.53;80.71;102169.34;5059400;28;20028;-79
2022/05/03 09:16:20;;;;;;;38.72;24.75;;;;;;;11.58;81.44;102177.97;5039445;28;20044;-79
2022/05/03 09:18:46;;;;;;;46.00;25.90;;;;;;;11.63;80.81;102173.50;5068970;28;20186;-80
2022/05/03 09:24:12;;;;;;;35.22;22.38;;;;;;;11.70;80.18;102167.19;5077348;28;20056;-79
2022/05/03 09:26:38;;;;;;;40.53;25.00;;;;;;;11.72;80.60;102167.16;5058832;28;20028;-79
2022/05/03 09:29:10;;;;;;;47.55;27.52;;;;;;;11.72;80.83;102170.66;5058897;28;20071;-79
2022/05/03 09:31:41;;;;;;;50.40;27.42;;;;;;;11.75;81.03;102167.09;5058526;28;20308;-79
2022/05/03 09:34:26;;;;;;;50.80;28.08;;;;;;;11.80;80.94;102170.44;5059332;28;20028;-79
2022/05/03 09:37:00;;;;;;;49.33;27.63;;;;;;;11.88;81.22;102167.66;5076836;28;20454;-79
2022/05/03 09:39:30;;;;;;;45.13;26.98;;;;;;;11.92;80.65;102173.72;5076492;28;20047;-79
2022/05/03 09:42:06;;;;;;;49.58;27.45;;;;;;;11.95;80.68;102176.25;5077255;28;20370;-79
2022/05/03 09:44:36;;;;;;;42.75;24.98;;;;;;;11.98;80.66;102171.78;5058332;28;20052;-80
2022/05/03 09:47:11;;;;;;;40.10;23.58;;;;;;;12.02;80.17;102173.44;5061870;28;20055;-79
2022/05/03 09:49:41;;;;;;;42.92;23.85;;;;;;;12.04;80.05;102166.41;5080487;28;20248;-79
2022/05/03 09:52:09;;;;;;;36.17;22.13;;;;;;;12.03;79.17;102164.66;5062464;28;20048;-79
2022/05/03 09:54:50;;;;;;;38.90;21.73;;;;;;;12.06;79.27;102168.97;5042824;28;20106;-79
2022/05/03 09:57:21;;;;;;;34.20;20.80;;;;;;;12.06;79.32;102172.47;5051322;28;20044;-79
2022/05/03 09:59:51;;;;;;;47.97;23.08;;;;;;;12.07;79.49;102168.94;5080438;28;20318;-79
2022/05/03 10:02:18;;;;;;;42.22;22.60;;;;;;;12.08;79.14;102167.19;5062359;28;20020;-79
2022/05/03 10:04:45;;;;;;;37.28;20.17;;;;;;;12.10;79.00;102168.84;5080679;28;20059;-80
2022/05/03 10:07:11;;;;;;;39.75;21.42;;;;;;;12.14;79.14;102168.78;5046334;28;20025;-79
2022/05/03 10:09:38;;;;;;;31.17;19.17;;;;;;;12.16;78.39;102162.59;5079898;28;20047;-79
2022/05/03 10:12:04;;;;;;;34.42;18.52;;;;;;;12.20;78.36;102161.59;5049922;28;20040;-79
2022/05/03 10:14:30;;;;;;;33.13;18.23;;;;;;;12.24;78.40;102165.00;5077088;28;20036;-79
2022/05/03 10:22:29;;;;;;;32.15;17.85;;;;;;;12.33;77.77;102166.53;5064713;28;20408;-79
2022/05/03 10:24:56;;;;;;;41.70;19.87;;;;;;;12.35;77.37;102165.59;5079954;28;20027;-79
2022/05/03 10:27:27;;;;;;;34.22;18.98;;;;;;;12.40;77.06;102162.81;5062519;28;20093;-79
2022/05/03 10:30:16;;;;;;;35.83;19.58;;;;;;;12.43;77.58;102166.22;5062337;28;20055;-79
2022/05/03 10:32:42;;;;;;;40.30;20.35;;;;;;;12.44;77.34;102164.47;5062252;28;20336;-79
2022/05/03 10:35:34;;;;;;;35.00;18.13;;;;;;;12.47;77.71;102156.50;5059265;28;20024;-79
2022/05/03 10:37:59;;;;;;;36.55;19.23;;;;;;;12.46;77.48;102168.78;5080009;28;20044;-79
2022/05/03 10:40:34;;;;;;;36.65;18.83;;;;;;;12.45;77.28;102163.56;5079828;28;20044;-79
2022/05/03 10:43:09;;;;;;;36.70;19.08;;;;;;;12.46;77.13;102168.78;5080032;28;20187;-79
2022/05/03 10:45:48;;;;;;;40.22;20.10;;;;;;;12.45;77.58;102155.69;5079128;28;20401;-80
2022/05/03 10:48:26;;;;;;;38.17;19.42;;;;;;;12.49;77.29;102157.31;5079692;28;20236;-79
2022/05/03 10:50:54;;;;;;;33.83;18.30;;;;;;;12.51;77.09;102155.50;5061926;28;20285;-79
2022/05/03 10:53:25;;;;;;;37.30;19.52;;;;;;;12.54;77.35;102158.06;5061220;28;20074;-79
2022/05/03 10:56:17;;;;;;;33.65;18.55;;;;;;;12.58;77.33;102158.84;5079463;28;20359;-80
2022/05/03 10:59:05;;;;;;;33.15;17.98;;;;;;;12.59;77.07;102153.53;5066679;28;20039;-79
2022/05/03 11:01:32;;;;;;;39.35;19.88;;;;;;;12.61;76.81;102151.72;5079401;28;20024;-80
2022/05/03 11:03:58;;;;;;;38.17;19.00;;;;;;;12.62;77.18;102147.31;5079695;28;20088;-79
2022/05/03 11:06:23;;;;;;;41.38;20.38;;;;;;;12.65;77.12;102144.63;5079070;28;20033;-79
2022/05/03 11:11:42;;;;;;;38.50;20.17;;;;;;;12.72;77.04;102148.78;5078930;28;20036;-79
2022/05/03 11:14:18;;;;;;;41.13;21.52;;;;;;;12.76;76.91;102141.69;5079320;28;20036;-79
2022/05/03 11:17:03;;;;;;;42.72;21.58;;;;;;;12.76;77.15;102137.28;5078969;28;20359;-79
2022/05/03 11:19:30;;;;;;;43.60;21.02;;;;;;;12.81;76.77;102138.00;5078597;28;20266;-79
2022/05/03 11:21:56;;;;;;;35.47;20.23;;;;;;;12.82;76.41;102134.50;5061353;28;20257;-79
2022/05/03 11:24:30;;;;;;;39.60;19.58;;;;;;;12.83;76.07;102130.94;5040937;28;20095;-80
2022/05/03 11:27:01;;;;;;;39.65;21.15;;;;;;;12.85;75.91;102121.22;5053821;28;20302;-79
2022/05/03 11:29:41;;;;;;;42.05;19.83;;;;;;;12.85;75.89;102121.22;5065753;28;20216;-80
2022/05/03 11:32:07;;;;;;;33.78;17.73;;;;;;;12.91;75.84;102119.34;5079037;28;20056;-79
2022/05/03 11:34:34;;;;;;;37.75;19.73;;;;;;;12.96;76.16;102122.69;5069428;28;20064;-79
2022/05/03 11:37:00;;;;;;;37.65;18.45;;;;;;;13.00;75.91;102114.66;5057195;28;20348;-79
2022/05/03 11:39:25;;;;;;;34.00;17.98;;;;;;;13.04;75.97;102113.66;5078367;28;20047;-79
2022/05/03 11:41:51;;;;;;;36.92;18.20;;;;;;;13.05;75.83;102118.00;5060872;28;20052;-80
2022/05/03 11:44:17;;;;;;;34.28;16.88;;;;;;;13.06;75.40;102110.97;5060807;28;20111;-79
2022/05/03 11:46:45;;;;;;;28.65;15.98;;;;;;;13.08;75.71;102122.31;5060625;28;20104;-80
2022/05/03 11:49:14;;;;;;;24.37;14.67;;;;;;;13.07;75.12;102108.28;5054172;28;20247;-80
2022/05/03 11:57:22;;;;;;;18.42;12.45;;;;;;;13.23;75.30;102098.16;5074401;28;20276;-80
2022/05/03 11:59:49;;;;;;;23.48;12.60;;;;;;;13.25;74.72;102101.59;5051035;28;20385;-80
2022/05/03 12:02:20;;;;;;;21.85;12.30;;;;;;;13.26;74.58;102105.06;5049983;28;20222;-80
2022/05/03 12:05:07;;;;;;;17.00;11.50;;;;;;;13.27;74.68;102096.28;5070254;28;20316;-80
2022/05/03 12:07:40;;;;;;;17.05;10.68;;;;;;;13.27;74.95;102101.56;5069057;28;20046;-80